sensor_id;sensor_type;location;lat;lon;timestamp;P1;durP1;ratioP1;P2;durP2;ratioP2
31728;SDS011;18309;43.658;1.312;2022-07-10T00:00:31;10.77;;;2.00;;
31728;SDS011;18309;43.658;1.312;2022-07-10T00:02:57;4.70;;;2.08;;
31728;SDS011;18309;43.658;1.312;2022-07-10T00:05:24;6.22;;;1.90;;
31728;SDS011;18309;43.658;1.312;2022-07-10T00:07:50;5.18;;;1.92;;
31728;SDS011;18309;43.658;1.312;2022-07-10T00:10:17;7.22;;;1.60;;
31728;SDS011;18309;43.658;1.312;2022-07-10T00:12:43;8.93;;;1.88;;
31728;SDS011;18309;43.658;1.312;2022-07-10T00:15:10;5.80;;;2.30;;
31728;SDS011;18309;43.658;1.312;2022-07-10T00:17:36;5.90;;;1.77;;
31728;SDS011;18309;43.658;1.312;2022-07-10T00:20:04;5.18;;;2.05;;
31728;SDS011;18309;43.658;1.312;2022-07-10T00:22:32;4.60;;;1.67;;
31728;SDS011;18309;43.658;1.312;2022-07-10T00:25:02;20.05;;;2.22;;
31728;SDS011;18309;43.658;1.312;2022-07-10T00:27:28;6.53;;;1.80;;
31728;SDS011;18309;43.658;1.312;2022-07-10T00:29:53;5.82;;;2.50;;
31728;SDS011;18309;43.658;1.312;2022-07-10T00:32:19;4.30;;;2.10;;
31728;SDS011;18309;43.658;1.312;2022-07-10T00:34:45;5.93;;;1.80;;
31728;SDS011;18309;43.658;1.312;2022-07-10T00:37:11;7.13;;;2.22;;
31728;SDS011;18309;43.658;1.312;2022-07-10T00:39:36;11.18;;;2.30;;
31728;SDS011;18309;43.658;1.312;2022-07-10T00:42:12;4.40;;;2.00;;
31728;SDS011;18309;43.658;1.312;2022-07-10T00:44:39;11.73;;;3.38;;
31728;SDS011;18309;43.658;1.312;2022-07-10T00:47:06;6.15;;;2.15;;
31728;SDS011;18309;43.658;1.312;2022-07-10T00:49:33;6.00;;;1.88;;
31728;SDS011;18309;43.658;1.312;2022-07-10T00:52:00;4.75;;;2.60;;
31728;SDS011;18309;43.658;1.312;2022-07-10T00:54:29;4.60;;;2.47;;
31728;SDS011;18309;43.658;1.312;2022-07-10T00:56:56;8.48;;;2.10;;
31728;SDS011;18309;43.658;1.312;2022-07-10T00:59:22;6.25;;;2.22;;
31728;SDS011;18309;43.658;1.312;2022-07-10T01:01:49;4.10;;;2.28;;
31728;SDS011;18309;43.658;1.312;2022-07-10T01:04:15;4.57;;;2.22;;
31728;SDS011;18309;43.658;1.312;2022-07-10T01:06:41;8.52;;;2.15;;
31728;SDS011;18309;43.658;1.312;2022-07-10T01:09:07;9.57;;;2.20;;
31728;SDS011;18309;43.658;1.312;2022-07-10T01:11:33;7.07;;;2.60;;
31728;SDS011;18309;43.658;1.312;2022-07-10T01:14:01;8.95;;;2.53;;
31728;SDS011;18309;43.658;1.312;2022-07-10T01:16:27;6.15;;;2.20;;
31728;SDS011;18309;43.658;1.312;2022-07-10T01:18:54;12.52;;;2.30;;
31728;SDS011;18309;43.658;1.312;2022-07-10T01:21:24;3.25;;;2.08;;
31728;SDS011;18309;43.658;1.312;2022-07-10T01:23:51;8.23;;;2.55;;
31728;SDS011;18309;43.658;1.312;2022-07-10T01:26:17;10.73;;;2.05;;
31728;SDS011;18309;43.658;1.312;2022-07-10T01:28:45;7.00;;;2.00;;
31728;SDS011;18309;43.658;1.312;2022-07-10T01:31:13;4.15;;;2.33;;
31728;SDS011;18309;43.658;1.312;2022-07-10T01:33:39;8.05;;;2.28;;
31728;SDS011;18309;43.658;1.312;2022-07-10T01:36:05;6.18;;;2.40;;
31728;SDS011;18309;43.658;1.312;2022-07-10T01:38:32;5.65;;;2.45;;
31728;SDS011;18309;43.658;1.312;2022-07-10T01:40:58;9.82;;;2.45;;
31728;SDS011;18309;43.658;1.312;2022-07-10T01:43:23;5.65;;;2.47;;
31728;SDS011;18309;43.658;1.312;2022-07-10T01:45:49;8.13;;;2.85;;
31728;SDS011;18309;43.658;1.312;2022-07-10T01:48:16;4.43;;;2.50;;
31728;SDS011;18309;43.658;1.312;2022-07-10T01:50:43;5.57;;;2.00;;
31728;SDS011;18309;43.658;1.312;2022-07-10T01:53:08;5.55;;;2.22;;
31728;SDS011;18309;43.658;1.312;2022-07-10T01:55:35;7.03;;;2.08;;
31728;SDS011;18309;43.658;1.312;2022-07-10T01:58:02;3.70;;;1.95;;
31728;SDS011;18309;43.658;1.312;2022-07-10T02:00:27;6.30;;;2.40;;
31728;SDS011;18309;43.658;1.312;2022-07-10T02:02:53;3.85;;;2.58;;
31728;SDS011;18309;43.658;1.312;2022-07-10T02:05:38;16.52;;;2.88;;
31728;SDS011;18309;43.658;1.312;2022-07-10T02:08:03;9.80;;;2.20;;
31728;SDS011;18309;43.658;1.312;2022-07-10T02:10:31;3.92;;;2.30;;
31728;SDS011;18309;43.658;1.312;2022-07-10T02:12:57;6.35;;;2.75;;
31728;SDS011;18309;43.658;1.312;2022-07-10T02:15:23;7.30;;;2.45;;
31728;SDS011;18309;43.658;1.312;2022-07-10T02:17:48;5.25;;;2.72;;
31728;SDS011;18309;43.658;1.312;2022-07-10T02:20:14;4.45;;;2.47;;
31728;SDS011;18309;43.658;1.312;2022-07-10T02:22:40;10.57;;;2.95;;
31728;SDS011;18309;43.658;1.312;2022-07-10T02:25:06;10.30;;;2.67;;
31728;SDS011;18309;43.658;1.312;2022-07-10T02:27:32;6.03;;;2.45;;
31728;SDS011;18309;43.658;1.312;2022-07-10T02:29:58;6.25;;;3.10;;
31728;SDS011;18309;43.658;1.312;2022-07-10T02:32:24;5.05;;;2.47;;
31728;SDS011;18309;43.658;1.312;2022-07-10T02:34:49;9.15;;;2.63;;
31728;SDS011;18309;43.658;1.312;2022-07-10T02:37:15;5.40;;;2.50;;
31728;SDS011;18309;43.658;1.312;2022-07-10T02:39:41;7.43;;;2.40;;
31728;SDS011;18309;43.658;1.312;2022-07-10T02:42:06;4.88;;;2.33;;
31728;SDS011;18309;43.658;1.312;2022-07-10T02:44:32;6.53;;;1.95;;
31728;SDS011;18309;43.658;1.312;2022-07-10T02:46:58;6.35;;;2.60;;
31728;SDS011;18309;43.658;1.312;2022-07-10T02:49:24;4.32;;;2.40;;
31728;SDS011;18309;43.658;1.312;2022-07-10T02:51:49;5.25;;;2.58;;
31728;SDS011;18309;43.658;1.312;2022-07-10T02:54:15;5.03;;;2.50;;
31728;SDS011;18309;43.658;1.312;2022-07-10T02:56:41;6.22;;;2.35;;
31728;SDS011;18309;43.658;1.312;2022-07-10T02:59:07;7.10;;;2.40;;
31728;SDS011;18309;43.658;1.312;2022-07-10T03:01:33;5.88;;;2.20;;
31728;SDS011;18309;43.658;1.312;2022-07-10T03:03:58;5.55;;;2.60;;
31728;SDS011;18309;43.658;1.312;2022-07-10T03:06:26;7.93;;;2.55;;
31728;SDS011;18309;43.658;1.312;2022-07-10T03:08:52;7.75;;;2.60;;
31728;SDS011;18309;43.658;1.312;2022-07-10T03:11:17;4.15;;;2.20;;
31728;SDS011;18309;43.658;1.312;2022-07-10T03:13:43;4.22;;;2.45;;
31728;SDS011;18309;43.658;1.312;2022-07-10T03:16:09;7.25;;;2.60;;
31728;SDS011;18309;43.658;1.312;2022-07-10T03:18:35;9.93;;;2.85;;
31728;SDS011;18309;43.658;1.312;2022-07-10T03:21:00;6.15;;;2.15;;
31728;SDS011;18309;43.658;1.312;2022-07-10T03:23:26;3.33;;;1.80;;
31728;SDS011;18309;43.658;1.312;2022-07-10T03:25:52;6.72;;;2.60;;
31728;SDS011;18309;43.658;1.312;2022-07-10T03:28:17;9.13;;;2.67;;
31728;SDS011;18309;43.658;1.312;2022-07-10T03:30:43;9.30;;;2.70;;
31728;SDS011;18309;43.658;1.312;2022-07-10T03:33:09;4.72;;;2.55;;
31728;SDS011;18309;43.658;1.312;2022-07-10T03:35:34;6.97;;;2.60;;
31728;SDS011;18309;43.658;1.312;2022-07-10T03:38:00;6.38;;;2.67;;
31728;SDS011;18309;43.658;1.312;2022-07-10T03:40:26;6.35;;;2.72;;
31728;SDS011;18309;43.658;1.312;2022-07-10T03:42:52;8.73;;;2.60;;
31728;SDS011;18309;43.658;1.312;2022-07-10T03:45:18;9.10;;;2.65;;
31728;SDS011;18309;43.658;1.312;2022-07-10T03:47:44;5.05;;;2.20;;
31728;SDS011;18309;43.658;1.312;2022-07-10T03:50:09;8.05;;;2.47;;
31728;SDS011;18309;43.658;1.312;2022-07-10T03:52:35;5.13;;;2.33;;
31728;SDS011;18309;43.658;1.312;2022-07-10T03:55:01;9.65;;;2.67;;
31728;SDS011;18309;43.658;1.312;2022-07-10T03:57:27;7.25;;;2.83;;
31728;SDS011;18309;43.658;1.312;2022-07-10T04:00:11;4.07;;;2.22;;
31728;SDS011;18309;43.658;1.312;2022-07-10T04:02:38;7.30;;;2.28;;
31728;SDS011;18309;43.658;1.312;2022-07-10T04:05:07;6.03;;;2.40;;
31728;SDS011;18309;43.658;1.312;2022-07-10T04:07:35;7.25;;;2.58;;
31728;SDS011;18309;43.658;1.312;2022-07-10T04:10:01;5.80;;;2.65;;
31728;SDS011;18309;43.658;1.312;2022-07-10T04:12:27;3.97;;;2.60;;
31728;SDS011;18309;43.658;1.312;2022-07-10T04:14:53;7.68;;;2.40;;
31728;SDS011;18309;43.658;1.312;2022-07-10T04:17:19;3.42;;;2.22;;
31728;SDS011;18309;43.658;1.312;2022-07-10T04:19:45;4.18;;;1.98;;
31728;SDS011;18309;43.658;1.312;2022-07-10T04:22:11;3.55;;;2.00;;
31728;SDS011;18309;43.658;1.312;2022-07-10T04:24:37;5.72;;;2.15;;
31728;SDS011;18309;43.658;1.312;2022-07-10T04:27:03;6.22;;;2.08;;
31728;SDS011;18309;43.658;1.312;2022-07-10T04:29:29;12.75;;;2.50;;
31728;SDS011;18309;43.658;1.312;2022-07-10T04:31:56;9.68;;;2.05;;
31728;SDS011;18309;43.658;1.312;2022-07-10T04:34:22;5.80;;;1.95;;
31728;SDS011;18309;43.658;1.312;2022-07-10T04:36:48;3.38;;;1.85;;
31728;SDS011;18309;43.658;1.312;2022-07-10T04:39:13;10.70;;;2.17;;
31728;SDS011;18309;43.658;1.312;2022-07-10T04:41:39;4.28;;;1.90;;
31728;SDS011;18309;43.658;1.312;2022-07-10T04:44:05;7.53;;;2.17;;
31728;SDS011;18309;43.658;1.312;2022-07-10T04:46:31;8.73;;;2.33;;
31728;SDS011;18309;43.658;1.312;2022-07-10T04:48:56;7.68;;;2.20;;
31728;SDS011;18309;43.658;1.312;2022-07-10T04:51:22;7.15;;;2.25;;
31728;SDS011;18309;43.658;1.312;2022-07-10T04:53:48;5.78;;;2.10;;
31728;SDS011;18309;43.658;1.312;2022-07-10T04:56:14;7.22;;;2.30;;
31728;SDS011;18309;43.658;1.312;2022-07-10T04:58:40;4.20;;;1.90;;
31728;SDS011;18309;43.658;1.312;2022-07-10T05:01:06;8.63;;;2.53;;
31728;SDS011;18309;43.658;1.312;2022-07-10T05:03:32;5.28;;;2.00;;
31728;SDS011;18309;43.658;1.312;2022-07-10T05:05:57;6.35;;;2.20;;
31728;SDS011;18309;43.658;1.312;2022-07-10T05:08:23;3.88;;;1.92;;
31728;SDS011;18309;43.658;1.312;2022-07-10T05:10:49;8.18;;;2.10;;
31728;SDS011;18309;43.658;1.312;2022-07-10T05:13:15;9.60;;;1.98;;
31728;SDS011;18309;43.658;1.312;2022-07-10T05:15:40;5.32;;;2.63;;
31728;SDS011;18309;43.658;1.312;2022-07-10T05:18:06;8.50;;;2.05;;
31728;SDS011;18309;43.658;1.312;2022-07-10T05:20:32;7.95;;;2.03;;
31728;SDS011;18309;43.658;1.312;2022-07-10T05:23:00;9.60;;;2.03;;
31728;SDS011;18309;43.658;1.312;2022-07-10T05:25:26;7.07;;;2.08;;
31728;SDS011;18309;43.658;1.312;2022-07-10T05:27:55;7.85;;;2.13;;
31728;SDS011;18309;43.658;1.312;2022-07-10T05:30:21;16.05;;;2.60;;
31728;SDS011;18309;43.658;1.312;2022-07-10T05:32:46;7.90;;;2.30;;
31728;SDS011;18309;43.658;1.312;2022-07-10T05:35:13;7.47;;;2.47;;
31728;SDS011;18309;43.658;1.312;2022-07-10T05:37:40;5.72;;;2.97;;
31728;SDS011;18309;43.658;1.312;2022-07-10T05:40:06;8.55;;;2.72;;
31728;SDS011;18309;43.658;1.312;2022-07-10T05:42:33;8.68;;;3.30;;
31728;SDS011;18309;43.658;1.312;2022-07-10T05:44:59;9.90;;;2.75;;
31728;SDS011;18309;43.658;1.312;2022-07-10T05:47:25;9.55;;;3.20;;
31728;SDS011;18309;43.658;1.312;2022-07-10T05:49:50;6.47;;;2.88;;
31728;SDS011;18309;43.658;1.312;2022-07-10T05:52:16;6.60;;;3.33;;
31728;SDS011;18309;43.658;1.312;2022-07-10T05:54:42;10.70;;;2.92;;
31728;SDS011;18309;43.658;1.312;2022-07-10T05:57:07;7.68;;;3.20;;
31728;SDS011;18309;43.658;1.312;2022-07-10T05:59:33;7.45;;;3.30;;
31728;SDS011;18309;43.658;1.312;2022-07-10T06:01:59;9.13;;;3.63;;
31728;SDS011;18309;43.658;1.312;2022-07-10T06:04:26;8.35;;;3.03;;
31728;SDS011;18309;43.658;1.312;2022-07-10T06:06:52;7.85;;;3.30;;
31728;SDS011;18309;43.658;1.312;2022-07-10T06:09:17;7.57;;;3.50;;
31728;SDS011;18309;43.658;1.312;2022-07-10T06:11:43;4.93;;;3.08;;
31728;SDS011;18309;43.658;1.312;2022-07-10T06:14:11;8.32;;;3.53;;
31728;SDS011;18309;43.658;1.312;2022-07-10T06:16:37;8.15;;;3.10;;
31728;SDS011;18309;43.658;1.312;2022-07-10T06:19:03;7.72;;;3.25;;
31728;SDS011;18309;43.658;1.312;2022-07-10T06:21:28;6.07;;;3.25;;
31728;SDS011;18309;43.658;1.312;2022-07-10T06:23:54;13.93;;;3.30;;
31728;SDS011;18309;43.658;1.312;2022-07-10T06:26:20;4.75;;;2.80;;
31728;SDS011;18309;43.658;1.312;2022-07-10T06:28:45;18.45;;;7.80;;
31728;SDS011;18309;43.658;1.312;2022-07-10T06:31:11;6.63;;;3.40;;
31728;SDS011;18309;43.658;1.312;2022-07-10T06:33:37;5.13;;;2.97;;
31728;SDS011;18309;43.658;1.312;2022-07-10T06:36:04;7.22;;;3.00;;
31728;SDS011;18309;43.658;1.312;2022-07-10T06:38:30;10.48;;;3.38;;
31728;SDS011;18309;43.658;1.312;2022-07-10T06:40:55;7.70;;;2.83;;
31728;SDS011;18309;43.658;1.312;2022-07-10T06:43:21;4.22;;;2.40;;
31728;SDS011;18309;43.658;1.312;2022-07-10T06:45:47;5.32;;;2.72;;
31728;SDS011;18309;43.658;1.312;2022-07-10T06:48:13;7.00;;;3.22;;
31728;SDS011;18309;43.658;1.312;2022-07-10T06:50:39;4.95;;;2.97;;
31728;SDS011;18309;43.658;1.312;2022-07-10T06:53:06;5.13;;;2.80;;
31728;SDS011;18309;43.658;1.312;2022-07-10T06:55:32;7.70;;;2.75;;
31728;SDS011;18309;43.658;1.312;2022-07-10T06:57:59;10.88;;;3.95;;
31728;SDS011;18309;43.658;1.312;2022-07-10T07:00:25;10.30;;;4.47;;
31728;SDS011;18309;43.658;1.312;2022-07-10T07:02:51;7.97;;;2.75;;
31728;SDS011;18309;43.658;1.312;2022-07-10T07:05:17;10.35;;;2.95;;
31728;SDS011;18309;43.658;1.312;2022-07-10T07:07:43;6.45;;;2.67;;
31728;SDS011;18309;43.658;1.312;2022-07-10T07:10:09;7.68;;;3.25;;
31728;SDS011;18309;43.658;1.312;2022-07-10T07:12:35;6.50;;;3.45;;
31728;SDS011;18309;43.658;1.312;2022-07-10T07:15:02;9.65;;;3.28;;
31728;SDS011;18309;43.658;1.312;2022-07-10T07:17:27;9.43;;;2.70;;
31728;SDS011;18309;43.658;1.312;2022-07-10T07:20:00;4.40;;;2.70;;
31728;SDS011;18309;43.658;1.312;2022-07-10T07:22:45;5.43;;;2.30;;
31728;SDS011;18309;43.658;1.312;2022-07-10T07:25:29;9.55;;;2.85;;
31728;SDS011;18309;43.658;1.312;2022-07-10T07:27:55;5.80;;;2.30;;
31728;SDS011;18309;43.658;1.312;2022-07-10T07:30:21;3.92;;;2.72;;
31728;SDS011;18309;43.658;1.312;2022-07-10T07:32:46;5.30;;;2.22;;
31728;SDS011;18309;43.658;1.312;2022-07-10T07:35:13;7.32;;;2.00;;
31728;SDS011;18309;43.658;1.312;2022-07-10T07:37:43;4.55;;;2.33;;
31728;SDS011;18309;43.658;1.312;2022-07-10T07:40:14;4.95;;;2.00;;
31728;SDS011;18309;43.658;1.312;2022-07-10T07:42:44;10.10;;;2.70;;
31728;SDS011;18309;43.658;1.312;2022-07-10T07:45:11;11.05;;;2.80;;
31728;SDS011;18309;43.658;1.312;2022-07-10T07:47:46;10.63;;;2.70;;
31728;SDS011;18309;43.658;1.312;2022-07-10T07:50:13;6.53;;;2.35;;
31728;SDS011;18309;43.658;1.312;2022-07-10T07:52:40;4.35;;;2.70;;
31728;SDS011;18309;43.658;1.312;2022-07-10T07:55:06;12.23;;;2.65;;
31728;SDS011;18309;43.658;1.312;2022-07-10T07:57:32;14.77;;;2.60;;
31728;SDS011;18309;43.658;1.312;2022-07-10T07:59:58;5.18;;;2.33;;
31728;SDS011;18309;43.658;1.312;2022-07-10T08:02:23;8.20;;;2.70;;
31728;SDS011;18309;43.658;1.312;2022-07-10T08:04:49;6.53;;;2.22;;
31728;SDS011;18309;43.658;1.312;2022-07-10T08:07:15;4.05;;;2.35;;
31728;SDS011;18309;43.658;1.312;2022-07-10T08:09:41;4.43;;;2.65;;
31728;SDS011;18309;43.658;1.312;2022-07-10T08:12:06;5.20;;;2.20;;
31728;SDS011;18309;43.658;1.312;2022-07-10T08:14:32;8.60;;;3.25;;
31728;SDS011;18309;43.658;1.312;2022-07-10T08:16:58;3.22;;;2.20;;
31728;SDS011;18309;43.658;1.312;2022-07-10T08:19:24;4.90;;;2.47;;
31728;SDS011;18309;43.658;1.312;2022-07-10T08:21:50;14.10;;;3.50;;
31728;SDS011;18309;43.658;1.312;2022-07-10T08:24:16;12.65;;;2.60;;
31728;SDS011;18309;43.658;1.312;2022-07-10T08:26:41;12.85;;;2.53;;
31728;SDS011;18309;43.658;1.312;2022-07-10T08:29:07;5.47;;;2.92;;
31728;SDS011;18309;43.658;1.312;2022-07-10T08:31:33;8.90;;;2.40;;
31728;SDS011;18309;43.658;1.312;2022-07-10T08:33:59;12.73;;;3.10;;
31728;SDS011;18309;43.658;1.312;2022-07-10T08:36:25;6.78;;;2.35;;
31728;SDS011;18309;43.658;1.312;2022-07-10T08:38:52;5.00;;;2.40;;
31728;SDS011;18309;43.658;1.312;2022-07-10T08:41:21;4.47;;;2.22;;
31728;SDS011;18309;43.658;1.312;2022-07-10T08:43:51;4.60;;;2.20;;
31728;SDS011;18309;43.658;1.312;2022-07-10T08:46:17;6.50;;;2.63;;
31728;SDS011;18309;43.658;1.312;2022-07-10T08:48:49;4.45;;;2.33;;
31728;SDS011;18309;43.658;1.312;2022-07-10T08:51:30;5.72;;;2.28;;
31728;SDS011;18309;43.658;1.312;2022-07-10T08:54:06;3.90;;;2.20;;
31728;SDS011;18309;43.658;1.312;2022-07-10T08:56:33;8.88;;;2.40;;
31728;SDS011;18309;43.658;1.312;2022-07-10T08:59:00;6.22;;;2.80;;
31728;SDS011;18309;43.658;1.312;2022-07-10T09:01:29;11.27;;;2.60;;
31728;SDS011;18309;43.658;1.312;2022-07-10T09:03:55;6.78;;;2.50;;
31728;SDS011;18309;43.658;1.312;2022-07-10T09:06:20;7.40;;;2.22;;
31728;SDS011;18309;43.658;1.312;2022-07-10T09:11:24;13.52;;;2.22;;
31728;SDS011;18309;43.658;1.312;2022-07-10T09:13:54;7.93;;;2.13;;
31728;SDS011;18309;43.658;1.312;2022-07-10T09:16:34;6.80;;;2.30;;
31728;SDS011;18309;43.658;1.312;2022-07-10T09:21:51;3.37;;;2.30;;
31728;SDS011;18309;43.658;1.312;2022-07-10T09:24:19;4.80;;;2.05;;
31728;SDS011;18309;43.658;1.312;2022-07-10T09:29:28;10.32;;;2.00;;
31728;SDS011;18309;43.658;1.312;2022-07-10T09:31:55;3.60;;;1.98;;
31728;SDS011;18309;43.658;1.312;2022-07-10T09:34:41;8.30;;;2.05;;
31728;SDS011;18309;43.658;1.312;2022-07-10T09:37:27;6.20;;;2.58;;
31728;SDS011;18309;43.658;1.312;2022-07-10T09:45:09;9.18;;;3.03;;
31728;SDS011;18309;43.658;1.312;2022-07-10T09:50:03;6.65;;;2.92;;
31728;SDS011;18309;43.658;1.312;2022-07-10T09:52:30;8.93;;;2.50;;
31728;SDS011;18309;43.658;1.312;2022-07-10T09:54:57;3.83;;;2.28;;
31728;SDS011;18309;43.658;1.312;2022-07-10T09:57:24;8.98;;;2.17;;
31728;SDS011;18309;43.658;1.312;2022-07-10T09:59:55;6.55;;;2.35;;
31728;SDS011;18309;43.658;1.312;2022-07-10T10:02:21;6.53;;;2.00;;
31728;SDS011;18309;43.658;1.312;2022-07-10T10:04:48;11.82;;;4.53;;
31728;SDS011;18309;43.658;1.312;2022-07-10T10:07:14;6.53;;;3.67;;
31728;SDS011;18309;43.658;1.312;2022-07-10T10:09:49;5.57;;;2.17;;
31728;SDS011;18309;43.658;1.312;2022-07-10T10:13:01;6.70;;;3.10;;
31728;SDS011;18309;43.658;1.312;2022-07-10T10:15:10;13.18;;;2.60;;
31728;SDS011;18309;43.658;1.312;2022-07-10T10:17:36;4.88;;;2.00;;
31728;SDS011;18309;43.658;1.312;2022-07-10T10:20:05;4.35;;;2.08;;
31728;SDS011;18309;43.658;1.312;2022-07-10T10:22:51;12.05;;;2.63;;
31728;SDS011;18309;43.658;1.312;2022-07-10T10:25:20;7.57;;;2.13;;
31728;SDS011;18309;43.658;1.312;2022-07-10T10:27:48;4.10;;;2.10;;
31728;SDS011;18309;43.658;1.312;2022-07-10T10:30:15;12.68;;;2.17;;
31728;SDS011;18309;43.658;1.312;2022-07-10T10:32:42;3.45;;;2.00;;
31728;SDS011;18309;43.658;1.312;2022-07-10T10:35:07;4.72;;;2.13;;
31728;SDS011;18309;43.658;1.312;2022-07-10T10:37:40;5.63;;;1.63;;
31728;SDS011;18309;43.658;1.312;2022-07-10T10:40:09;5.45;;;2.15;;
31728;SDS011;18309;43.658;1.312;2022-07-10T10:42:54;6.53;;;2.90;;
31728;SDS011;18309;43.658;1.312;2022-07-10T10:48:01;8.40;;;3.50;;
31728;SDS011;18309;43.658;1.312;2022-07-10T10:50:49;12.00;;;2.33;;
31728;SDS011;18309;43.658;1.312;2022-07-10T10:53:17;6.65;;;1.50;;
31728;SDS011;18309;43.658;1.312;2022-07-10T10:58:41;5.10;;;1.80;;
31728;SDS011;18309;43.658;1.312;2022-07-10T11:12:05;8.20;;;1.65;;
31728;SDS011;18309;43.658;1.312;2022-07-10T11:14:34;3.63;;;1.50;;
31728;SDS011;18309;43.658;1.312;2022-07-10T11:17:00;7.72;;;1.50;;
31728;SDS011;18309;43.658;1.312;2022-07-10T11:19:30;3.72;;;1.67;;
31728;SDS011;18309;43.658;1.312;2022-07-10T11:25:20;4.18;;;1.42;;
31728;SDS011;18309;43.658;1.312;2022-07-10T11:28:15;7.80;;;2.03;;
31728;SDS011;18309;43.658;1.312;2022-07-10T11:30:53;11.73;;;1.80;;
31728;SDS011;18309;43.658;1.312;2022-07-10T11:33:20;4.00;;;1.85;;
31728;SDS011;18309;43.658;1.312;2022-07-10T11:35:50;2.63;;;1.77;;
31728;SDS011;18309;43.658;1.312;2022-07-10T11:38:21;4.78;;;2.25;;
31728;SDS011;18309;43.658;1.312;2022-07-10T11:40:47;4.78;;;1.90;;
31728;SDS011;18309;43.658;1.312;2022-07-10T11:43:13;4.82;;;2.00;;
31728;SDS011;18309;43.658;1.312;2022-07-10T11:45:42;5.03;;;1.50;;
31728;SDS011;18309;43.658;1.312;2022-07-10T11:48:21;2.22;;;1.40;;
31728;SDS011;18309;43.658;1.312;2022-07-10T11:50:48;5.43;;;1.70;;
31728;SDS011;18309;43.658;1.312;2022-07-10T11:53:22;22.85;;;8.95;;
31728;SDS011;18309;43.658;1.312;2022-07-10T11:55:51;12.07;;;3.60;;
31728;SDS011;18309;43.658;1.312;2022-07-10T11:58:17;4.00;;;2.00;;
31728;SDS011;18309;43.658;1.312;2022-07-10T12:00:56;4.22;;;2.03;;
31728;SDS011;18309;43.658;1.312;2022-07-10T12:03:27;8.13;;;1.65;;
31728;SDS011;18309;43.658;1.312;2022-07-10T12:05:53;4.97;;;1.45;;
31728;SDS011;18309;43.658;1.312;2022-07-10T12:08:18;3.90;;;1.52;;
31728;SDS011;18309;43.658;1.312;2022-07-10T12:10:44;2.97;;;1.40;;
31728;SDS011;18309;43.658;1.312;2022-07-10T12:13:11;6.80;;;1.52;;
31728;SDS011;18309;43.658;1.312;2022-07-10T12:15:38;4.60;;;1.65;;
31728;SDS011;18309;43.658;1.312;2022-07-10T12:18:05;4.97;;;1.42;;
31728;SDS011;18309;43.658;1.312;2022-07-10T12:20:48;3.10;;;1.10;;
31728;SDS011;18309;43.658;1.312;2022-07-10T12:23:18;4.82;;;1.42;;
31728;SDS011;18309;43.658;1.312;2022-07-10T12:25:45;2.50;;;1.38;;
31728;SDS011;18309;43.658;1.312;2022-07-10T12:28:14;4.40;;;1.70;;
31728;SDS011;18309;43.658;1.312;2022-07-10T12:30:43;3.03;;;1.70;;
31728;SDS011;18309;43.658;1.312;2022-07-10T12:38:20;2.20;;;1.20;;
31728;SDS011;18309;43.658;1.312;2022-07-10T12:40:47;2.25;;;1.10;;
31728;SDS011;18309;43.658;1.312;2022-07-10T12:43:23;1.90;;;1.30;;
31728;SDS011;18309;43.658;1.312;2022-07-10T12:49:03;2.65;;;1.27;;
31728;SDS011;18309;43.658;1.312;2022-07-10T12:54:30;6.47;;;1.70;;
31728;SDS011;18309;43.658;1.312;2022-07-10T12:57:00;3.38;;;1.20;;
31728;SDS011;18309;43.658;1.312;2022-07-10T12:59:27;3.50;;;0.88;;
31728;SDS011;18309;43.658;1.312;2022-07-10T13:01:56;1.67;;;0.98;;
31728;SDS011;18309;43.658;1.312;2022-07-10T13:04:25;3.55;;;1.17;;
31728;SDS011;18309;43.658;1.312;2022-07-10T13:06:52;2.85;;;1.33;;
31728;SDS011;18309;43.658;1.312;2022-07-10T13:09:19;3.28;;;1.45;;
31728;SDS011;18309;43.658;1.312;2022-07-10T13:11:51;2.83;;;1.30;;
31728;SDS011;18309;43.658;1.312;2022-07-10T13:14:18;4.28;;;1.85;;
31728;SDS011;18309;43.658;1.312;2022-07-10T13:16:44;3.78;;;1.13;;
31728;SDS011;18309;43.658;1.312;2022-07-10T13:19:10;1.92;;;1.02;;
31728;SDS011;18309;43.658;1.312;2022-07-10T13:21:36;2.50;;;1.23;;
31728;SDS011;18309;43.658;1.312;2022-07-10T13:24:02;3.47;;;1.85;;
31728;SDS011;18309;43.658;1.312;2022-07-10T13:26:29;2.85;;;1.23;;
31728;SDS011;18309;43.658;1.312;2022-07-10T13:28:55;1.95;;;1.00;;
31728;SDS011;18309;43.658;1.312;2022-07-10T13:31:22;6.25;;;1.20;;
31728;SDS011;18309;43.658;1.312;2022-07-10T13:33:48;2.25;;;1.05;;
31728;SDS011;18309;43.658;1.312;2022-07-10T13:36:14;6.88;;;1.10;;
31728;SDS011;18309;43.658;1.312;2022-07-10T13:38:39;10.18;;;1.23;;
31728;SDS011;18309;43.658;1.312;2022-07-10T13:41:07;5.65;;;1.35;;
31728;SDS011;18309;43.658;1.312;2022-07-10T13:43:33;4.60;;;0.93;;
31728;SDS011;18309;43.658;1.312;2022-07-10T13:46:00;4.97;;;1.10;;
31728;SDS011;18309;43.658;1.312;2022-07-10T13:48:26;3.25;;;1.35;;
31728;SDS011;18309;43.658;1.312;2022-07-10T13:50:53;4.50;;;1.25;;
31728;SDS011;18309;43.658;1.312;2022-07-10T13:53:18;3.67;;;1.55;;
31728;SDS011;18309;43.658;1.312;2022-07-10T13:55:45;4.30;;;1.10;;
31728;SDS011;18309;43.658;1.312;2022-07-10T13:58:11;6.30;;;1.15;;
31728;SDS011;18309;43.658;1.312;2022-07-10T14:00:38;3.92;;;1.38;;
31728;SDS011;18309;43.658;1.312;2022-07-10T14:03:04;2.85;;;0.95;;
31728;SDS011;18309;43.658;1.312;2022-07-10T14:05:31;5.78;;;1.30;;
31728;SDS011;18309;43.658;1.312;2022-07-10T14:07:57;4.95;;;1.02;;
31728;SDS011;18309;43.658;1.312;2022-07-10T14:10:23;3.05;;;1.75;;
31728;SDS011;18309;43.658;1.312;2022-07-10T14:12:50;4.55;;;2.28;;
31728;SDS011;18309;43.658;1.312;2022-07-10T14:17:45;3.72;;;1.40;;
31728;SDS011;18309;43.658;1.312;2022-07-10T14:20:11;2.47;;;1.35;;
31728;SDS011;18309;43.658;1.312;2022-07-10T14:22:37;3.17;;;1.00;;
31728;SDS011;18309;43.658;1.312;2022-07-10T14:25:04;6.47;;;1.40;;
31728;SDS011;18309;43.658;1.312;2022-07-10T14:27:31;2.60;;;1.02;;
31728;SDS011;18309;43.658;1.312;2022-07-10T14:29:57;2.70;;;1.27;;
31728;SDS011;18309;43.658;1.312;2022-07-10T14:32:24;1.55;;;1.30;;
31728;SDS011;18309;43.658;1.312;2022-07-10T14:34:50;5.10;;;1.50;;
31728;SDS011;18309;43.658;1.312;2022-07-10T14:37:15;2.80;;;1.10;;
31728;SDS011;18309;43.658;1.312;2022-07-10T14:39:41;5.55;;;1.20;;
31728;SDS011;18309;43.658;1.312;2022-07-10T14:42:07;3.60;;;0.90;;
31728;SDS011;18309;43.658;1.312;2022-07-10T14:44:34;3.75;;;1.10;;
31728;SDS011;18309;43.658;1.312;2022-07-10T14:47:00;2.05;;;1.10;;
31728;SDS011;18309;43.658;1.312;2022-07-10T14:49:26;5.03;;;1.23;;
31728;SDS011;18309;43.658;1.312;2022-07-10T14:51:51;2.40;;;1.20;;
31728;SDS011;18309;43.658;1.312;2022-07-10T14:54:17;3.33;;;1.48;;
31728;SDS011;18309;43.658;1.312;2022-07-10T14:56:43;2.40;;;1.00;;
31728;SDS011;18309;43.658;1.312;2022-07-10T14:59:09;1.52;;;0.98;;
31728;SDS011;18309;43.658;1.312;2022-07-10T15:01:35;2.05;;;1.17;;
31728;SDS011;18309;43.658;1.312;2022-07-10T15:04:01;3.58;;;1.13;;
31728;SDS011;18309;43.658;1.312;2022-07-10T15:06:27;3.83;;;1.60;;
31728;SDS011;18309;43.658;1.312;2022-07-10T15:08:52;4.15;;;1.10;;
31728;SDS011;18309;43.658;1.312;2022-07-10T15:11:18;2.38;;;0.90;;
31728;SDS011;18309;43.658;1.312;2022-07-10T15:13:47;2.47;;;1.10;;
31728;SDS011;18309;43.658;1.312;2022-07-10T15:16:15;1.73;;;0.90;;
31728;SDS011;18309;43.658;1.312;2022-07-10T15:18:42;5.32;;;0.80;;
31728;SDS011;18309;43.658;1.312;2022-07-10T15:21:08;3.05;;;1.00;;
31728;SDS011;18309;43.658;1.312;2022-07-10T15:23:33;2.42;;;0.90;;
31728;SDS011;18309;43.658;1.312;2022-07-10T15:25:59;2.58;;;0.90;;
31728;SDS011;18309;43.658;1.312;2022-07-10T15:28:26;1.48;;;0.70;;
31728;SDS011;18309;43.658;1.312;2022-07-10T15:30:51;2.30;;;0.90;;
31728;SDS011;18309;43.658;1.312;2022-07-10T15:33:17;1.48;;;0.88;;
31728;SDS011;18309;43.658;1.312;2022-07-10T15:35:43;3.65;;;0.90;;